Time;durP1;ratioP1;P1;durP2;ratioP2;P2;SDS_P1;SDS_P2;PMS_P1;PMS_P2;Temp;Humidity;BMP_temperature;BMP_pressure;BME280_temperature;BME280_humidity;BME280_pressure;Samples;Min_cycle;Max_cycle;Signal;HPM_P1;HPM_P2
2021/07/22 00:00:55;;;;;;;13.65;6.65;;;;;;;;;;4204810;34;20168;-71
2021/07/22 00:03:21;;;;;;;10.63;6.62;;;;;;;;;;4204894;34;20502;-71
2021/07/22 00:05:47;;;;;;;9.80;5.40;;;;;;;;;;4204694;34;20205;-71
2021/07/22 00:08:13;;;;;;;12.32;5.72;;;;;;;;;;4204914;34;20109;-71
2021/07/22 00:10:39;;;;;;;8.85;5.70;;;;;;;;;;4191963;34;20125;-71
2021/07/22 00:13:05;;;;;;;8.68;5.22;;;;;;;;;;4204700;34;20106;-69
2021/07/22 00:15:31;;;;;;;9.60;5.22;;;;;;;;;;4191878;34;20224;-68
2021/07/22 00:17:57;;;;;;;10.25;5.80;;;;;;;;;;4204687;34;20136;-71
2021/07/22 00:20:23;;;;;;;13.57;5.50;;;;;;;;;;4192110;34;20128;-72
2021/07/22 00:22:49;;;;;;;8.77;5.40;;;;;;;;;;4204612;34;20110;-72
2021/07/22 00:25:15;;;;;;;10.90;5.43;;;;;;;;;;4204858;34;20174;-71
2021/07/22 00:27:41;;;;;;;14.90;8.02;;;;;;;;;;4205526;34;20133;-70
2021/07/22 00:30:07;;;;;;;14.30;7.53;;;;;;;;;;4204684;34;20521;-69
2021/07/22 00:32:35;;;;;;;16.90;6.30;;;;;;;;;;4204653;34;20099;-72
2021/07/22 00:35:01;;;;;;;11.52;6.55;;;;;;;;;;4207533;34;20089;-71
2021/07/22 00:37:26;;;;;;;15.20;7.32;;;;;;;;;;4216662;34;20171;-71
2021/07/22 00:39:52;;;;;;;13.93;7.25;;;;;;;;;;4204433;34;20125;-71
2021/07/22 00:42:18;;;;;;;13.38;7.25;;;;;;;;;;4209074;34;20105;-71
2021/07/22 00:44:44;;;;;;;21.20;6.30;;;;;;;;;;4205538;34;20117;-72
2021/07/22 00:47:10;;;;;;;12.32;6.47;;;;;;;;;;4218282;34;20509;-72
2021/07/22 00:49:36;;;;;;;10.15;6.57;;;;;;;;;;4218356;34;20437;-68
2021/07/22 00:52:02;;;;;;;12.05;5.53;;;;;;;;;;4206982;34;20253;-72
2021/07/22 00:54:28;;;;;;;13.27;6.57;;;;;;;;;;4204377;34;20487;-71
2021/07/22 00:56:54;;;;;;;15.95;6.93;;;;;;;;;;4204482;34;20136;-72
2021/07/22 00:59:19;;;;;;;10.07;5.95;;;;;;;;;;4204529;34;20177;-71
2021/07/22 01:01:45;;;;;;;11.68;6.47;;;;;;;;;;4204398;34;20117;-69
2021/07/22 01:04:11;;;;;;;13.88;6.57;;;;;;;;;;4204332;34;20124;-69
2021/07/22 01:06:37;;;;;;;7.07;3.85;;;;;;;;;;4204224;34;20105;-69
2021/07/22 01:09:03;;;;;;;9.48;4.12;;;;;;;;;;4202388;34;20144;-72
2021/07/22 01:11:29;;;;;;;13.25;4.62;;;;;;;;;;4218374;34;20227;-71
2021/07/22 01:13:55;;;;;;;10.75;6.18;;;;;;;;;;4205091;34;20212;-68
2021/07/22 01:16:21;;;;;;;9.80;5.97;;;;;;;;;;4217873;34;20528;-72
2021/07/22 01:18:47;;;;;;;9.35;3.90;;;;;;;;;;4205222;34;20115;-68
2021/07/22 01:21:12;;;;;;;14.25;5.30;;;;;;;;;;4217946;34;20213;-68
2021/07/22 01:23:38;;;;;;;10.55;5.35;;;;;;;;;;4218175;34;20388;-68
2021/07/22 01:26:04;;;;;;;14.60;6.53;;;;;;;;;;4218293;34;20536;-68
2021/07/22 01:28:30;;;;;;;11.85;6.37;;;;;;;;;;4217949;34;20500;-68
2021/07/22 01:30:56;;;;;;;10.10;5.45;;;;;;;;;;4218102;34;20106;-69
2021/07/22 01:33:22;;;;;;;12.88;7.50;;;;;;;;;;4204978;34;20548;-69
2021/07/22 01:35:48;;;;;;;14.75;7.15;;;;;;;;;;4210417;33;20101;-69
2021/07/22 01:38:14;;;;;;;36.88;14.25;;;;;;;;;;4204056;34;20476;-72
2021/07/22 01:40:39;;;;;;;44.53;17.48;;;;;;;;;;4203863;34;20129;-69
2021/07/22 01:43:05;;;;;;;45.97;20.48;;;;;;;;;;4203667;34;20122;-69
2021/07/22 01:45:32;;;;;;;14.05;5.47;;;;;;;;;;4203877;34;20185;-69
2021/07/22 01:47:58;;;;;;;22.77;7.32;;;;;;;;;;4204046;34;20545;-68
2021/07/22 01:50:24;;;;;;;17.60;7.80;;;;;;;;;;4191022;34;20149;-69
2021/07/22 01:52:50;;;;;;;14.32;8.30;;;;;;;;;;4203728;34;20169;-71
2021/07/22 01:55:16;;;;;;;12.57;6.85;;;;;;;;;;4203892;34;20501;-71
2021/07/22 01:57:42;;;;;;;13.07;7.55;;;;;;;;;;4203587;34;20484;-69
2021/07/22 02:00:09;;;;;;;11.57;6.75;;;;;;;;;;4203979;34;20130;-69
2021/07/22 02:02:35;;;;;;;10.98;6.22;;;;;;;;;;4193095;34;20137;-69
2021/07/22 02:05:01;;;;;;;7.97;5.00;;;;;;;;;;4192982;34;20659;-68
2021/07/22 02:07:27;;;;;;;9.45;5.72;;;;;;;;;;4205835;34;20102;-68
2021/07/22 02:09:53;;;;;;;11.57;6.93;;;;;;;;;;4199848;34;20136;-71
2021/07/22 02:12:20;;;;;;;12.07;7.18;;;;;;;;;;4195544;34;20456;-71
2021/07/22 02:14:50;;;;;;;12.77;7.62;;;;;;;;;;4219735;34;20129;-68
2021/07/22 02:17:19;;;;;;;14.05;7.37;;;;;;;;;;4219748;34;20109;-69
2021/07/22 02:19:45;;;;;;;15.27;6.97;;;;;;;;;;4207044;34;20528;-70
2021/07/22 02:22:14;;;;;;;11.15;6.55;;;;;;;;;;4206849;34;20124;-69
2021/07/22 02:24:40;;;;;;;11.02;6.93;;;;;;;;;;4219622;34;20208;-70
2021/07/22 02:27:06;;;;;;;13.10;7.05;;;;;;;;;;4219621;34;20174;-68
2021/07/22 02:29:32;;;;;;;13.80;8.23;;;;;;;;;;4219935;34;20114;-68
2021/07/22 02:31:57;;;;;;;13.82;8.15;;;;;;;;;;4207027;34;20116;-69
2021/07/22 02:34:23;;;;;;;13.73;8.35;;;;;;;;;;4206555;34;20211;-68
2021/07/22 02:36:49;;;;;;;17.85;8.55;;;;;;;;;;4212620;33;20110;-68
2021/07/22 02:39:15;;;;;;;18.58;9.65;;;;;;;;;;4205433;34;20130;-68
2021/07/22 02:41:41;;;;;;;21.95;10.68;;;;;;;;;;4205866;34;20324;-68
2021/07/22 02:44:07;;;;;;;24.02;11.77;;;;;;;;;;4205858;34;20119;-67
2021/07/22 02:46:35;;;;;;;20.98;12.30;;;;;;;;;;4205818;34;20465;-66
2021/07/22 02:49:01;;;;;;;19.55;11.75;;;;;;;;;;4205471;34;20117;-67
2021/07/22 02:51:27;;;;;;;17.10;10.60;;;;;;;;;;4205061;34;20517;-73
2021/07/22 02:53:53;;;;;;;16.87;9.25;;;;;;;;;;4193035;34;20128;-71
2021/07/22 02:56:19;;;;;;;14.25;8.85;;;;;;;;;;4205532;34;20506;-69
2021/07/22 02:58:44;;;;;;;16.58;9.32;;;;;;;;;;4205576;34;20118;-68
2021/07/22 03:01:11;;;;;;;17.45;8.32;;;;;;;;;;4205748;34;20517;-68
2021/07/22 03:03:36;;;;;;;13.48;7.50;;;;;;;;;;4192863;34;20557;-69
2021/07/22 03:06:02;;;;;;;19.42;8.15;;;;;;;;;;4205431;34;20598;-68
2021/07/22 03:08:28;;;;;;;16.25;8.88;;;;;;;;;;4205618;34;20125;-69
2021/07/22 03:10:54;;;;;;;22.98;10.45;;;;;;;;;;4204469;34;20121;-69
2021/07/22 03:13:20;;;;;;;13.93;8.50;;;;;;;;;;4202235;34;20187;-69
2021/07/22 03:15:46;;;;;;;14.68;8.70;;;;;;;;;;4203125;34;20205;-68
2021/07/22 03:18:12;;;;;;;16.87;9.77;;;;;;;;;;4203431;34;20163;-69
2021/07/22 03:20:38;;;;;;;14.77;8.70;;;;;;;;;;4203287;34;20144;-68
2021/07/22 03:23:04;;;;;;;20.05;10.93;;;;;;;;;;4203239;34;20134;-69
2021/07/22 03:25:30;;;;;;;22.85;10.23;;;;;;;;;;4190509;34;20141;-68
2021/07/22 03:27:59;;;;;;;15.45;9.43;;;;;;;;;;4202901;34;20141;-69
2021/07/22 03:30:27;;;;;;;16.05;10.02;;;;;;;;;;4203354;34;20121;-70
2021/07/22 03:32:53;;;;;;;21.02;10.07;;;;;;;;;;4202944;34;20139;-69
2021/07/22 03:35:18;;;;;;;16.45;10.02;;;;;;;;;;4190667;34;20125;-67
2021/07/22 03:37:44;;;;;;;18.67;10.52;;;;;;;;;;4205231;34;20221;-69
2021/07/22 03:40:11;;;;;;;19.48;11.73;;;;;;;;;;4205392;34;20220;-69
2021/07/22 03:42:36;;;;;;;18.05;11.70;;;;;;;;;;4205025;34;20097;-69
2021/07/22 03:45:02;;;;;;;19.70;10.82;;;;;;;;;;4205132;34;20137;-70
2021/07/22 03:47:28;;;;;;;19.00;10.65;;;;;;;;;;4205145;34;20113;-69
2021/07/22 03:49:54;;;;;;;24.10;12.32;;;;;;;;;;4192569;34;20117;-69
2021/07/22 03:52:20;;;;;;;16.65;10.48;;;;;;;;;;4205463;34;20513;-71
2021/07/22 03:54:46;;;;;;;18.37;11.60;;;;;;;;;;4206384;34;20481;-70
2021/07/22 03:57:12;;;;;;;23.80;14.40;;;;;;;;;;4205029;34;20146;-70
2021/07/22 03:59:38;;;;;;;25.20;11.45;;;;;;;;;;4205015;34;20551;-68
2021/07/22 04:02:04;;;;;;;23.67;12.00;;;;;;;;;;4204945;34;20574;-68
2021/07/22 04:04:30;;;;;;;21.27;12.07;;;;;;;;;;4206444;34;20137;-70
2021/07/22 04:06:56;;;;;;;17.33;10.60;;;;;;;;;;4204825;34;20130;-69
2021/07/22 04:09:22;;;;;;;20.35;11.80;;;;;;;;;;4205482;34;20117;-70
2021/07/22 04:11:48;;;;;;;21.85;14.13;;;;;;;;;;4204890;34;20089;-69
2021/07/22 04:14:14;;;;;;;23.23;15.98;;;;;;;;;;4204844;34;20295;-70
2021/07/22 04:16:40;;;;;;;29.63;15.38;;;;;;;;;;4205039;34;20098;-70
2021/07/22 04:19:09;;;;;;;35.95;21.70;;;;;;;;;;4204834;34;20120;-67
2021/07/22 04:21:35;;;;;;;22.45;13.80;;;;;;;;;;4204890;34;20121;-68
2021/07/22 04:24:00;;;;;;;27.73;15.52;;;;;;;;;;4204576;34;20194;-65
2021/07/22 04:26:26;;;;;;;30.60;14.68;;;;;;;;;;4204756;34;20129;-70
2021/07/22 04:28:52;;;;;;;18.75;12.68;;;;;;;;;;4205275;34;20552;-65
2021/07/22 04:31:19;;;;;;;19.80;12.23;;;;;;;;;;4205190;34;20124;-70
2021/07/22 04:33:48;;;;;;;17.52;10.48;;;;;;;;;;4204716;34;20258;-70
2021/07/22 04:36:14;;;;;;;20.98;11.82;;;;;;;;;;4191859;34;20213;-70
2021/07/22 04:38:41;;;;;;;21.20;10.48;;;;;;;;;;4204771;34;20117;-71
2021/07/22 04:41:07;;;;;;;15.77;9.32;;;;;;;;;;4204524;34;20121;-66
2021/07/22 04:43:33;;;;;;;15.57;9.57;;;;;;;;;;4204791;34;20121;-68
2021/07/22 04:46:05;;;;;;;16.45;9.02;;;;;;;;;;4204867;34;20113;-67
2021/07/22 04:48:31;;;;;;;15.95;8.77;;;;;;;;;;4204490;34;20129;-67
2021/07/22 04:50:57;;;;;;;15.88;9.07;;;;;;;;;;4204709;34;20444;-65
2021/07/22 04:53:23;;;;;;;17.25;8.38;;;;;;;;;;4204714;34;20138;-71
2021/07/22 04:55:49;;;;;;;11.77;7.25;;;;;;;;;;4204386;34;20125;-65
2021/07/22 04:58:15;;;;;;;15.90;8.25;;;;;;;;;;4191605;34;20110;-68
2021/07/22 05:00:41;;;;;;;14.87;9.32;;;;;;;;;;4204785;34;20117;-68
2021/07/22 05:03:07;;;;;;;16.77;10.63;;;;;;;;;;4204643;34;20506;-67
2021/07/22 05:05:36;;;;;;;21.08;11.40;;;;;;;;;;4204622;34;20529;-66
2021/07/22 05:08:02;;;;;;;16.17;7.75;;;;;;;;;;4204380;34;20501;-65
2021/07/22 05:10:29;;;;;;;13.07;7.65;;;;;;;;;;4204349;34;20124;-66
2021/07/22 05:13:01;;;;;;;18.42;11.75;;;;;;;;;;4204097;34;20631;-65
2021/07/22 05:15:27;;;;;;;17.50;10.32;;;;;;;;;;4204517;34;20261;-68
2021/07/22 05:17:53;;;;;;;20.95;11.80;;;;;;;;;;4204344;34;20146;-71
2021/07/22 05:20:20;;;;;;;17.12;10.98;;;;;;;;;;4204267;34;20561;-66
2021/07/22 05:22:46;;;;;;;14.10;10.07;;;;;;;;;;4204169;34;20236;-71
2021/07/22 05:25:12;;;;;;;9.43;5.57;;;;;;;;;;4194392;34;20121;-68
2021/07/22 05:27:38;;;;;;;9.38;3.30;;;;;;;;;;4204334;34;20115;-66
2021/07/22 05:30:04;;;;;;;10.95;6.70;;;;;;;;;;4204239;34;20137;-65
2021/07/22 05:32:30;;;;;;;17.30;7.40;;;;;;;;;;4204094;34;20141;-71
2021/07/22 05:34:56;;;;;;;14.45;8.52;;;;;;;;;;4193257;34;20126;-68
2021/07/22 05:37:22;;;;;;;14.25;8.15;;;;;;;;;;4206337;34;20125;-65
2021/07/22 05:39:48;;;;;;;13.15;5.47;;;;;;;;;;4193240;34;20110;-66
2021/07/22 05:42:14;;;;;;;8.32;5.22;;;;;;;;;;4208418;34;20102;-70
2021/07/22 05:44:40;;;;;;;9.40;5.03;;;;;;;;;;4206047;34;20113;-71
2021/07/22 05:47:06;;;;;;;11.73;6.47;;;;;;;;;;4206023;34;20168;-70
2021/07/22 05:49:32;;;;;;;13.95;6.20;;;;;;;;;;4206367;34;20121;-69
2021/07/22 05:51:58;;;;;;;9.38;5.50;;;;;;;;;;4206271;34;20543;-68
2021/07/22 05:54:23;;;;;;;9.18;5.10;;;;;;;;;;4205933;34;20574;-71
2021/07/22 05:56:49;;;;;;;8.40;4.55;;;;;;;;;;4206059;34;20472;-71
2021/07/22 05:59:15;;;;;;;5.78;4.25;;;;;;;;;;4206192;34;20313;-66
2021/07/22 06:01:41;;;;;;;10.75;5.82;;;;;;;;;;4193180;34;20197;-68
2021/07/22 06:04:07;;;;;;;9.27;5.75;;;;;;;;;;4206031;34;20110;-68
2021/07/22 06:06:36;;;;;;;8.23;5.87;;;;;;;;;;4206010;34;20232;-66
2021/07/22 06:09:03;;;;;;;8.13;5.50;;;;;;;;;;4206271;34;20504;-66
2021/07/22 06:11:29;;;;;;;8.90;5.75;;;;;;;;;;4206076;34;20549;-65
2021/07/22 06:13:55;;;;;;;12.30;5.75;;;;;;;;;;4205799;34;20114;-68
2021/07/22 06:16:21;;;;;;;10.18;5.87;;;;;;;;;;4192945;34;20117;-67
2021/07/22 06:18:47;;;;;;;6.05;3.35;;;;;;;;;;4205916;34;20124;-71
2021/07/22 06:21:14;;;;;;;9.70;4.93;;;;;;;;;;4205767;34;20126;-65
2021/07/22 06:23:40;;;;;;;8.10;5.03;;;;;;;;;;4205727;34;20105;-66
2021/07/22 06:26:06;;;;;;;8.90;4.78;;;;;;;;;;4205888;34;20097;-70
2021/07/22 06:28:32;;;;;;;7.57;4.32;;;;;;;;;;4205689;34;20240;-65
2021/07/22 06:30:58;;;;;;;6.03;4.37;;;;;;;;;;4205729;34;20217;-65
2021/07/22 06:33:24;;;;;;;6.60;3.85;;;;;;;;;;4205670;34;20125;-69
2021/07/22 06:35:51;;;;;;;6.15;4.10;;;;;;;;;;4205814;34;20117;-69
2021/07/22 06:38:16;;;;;;;7.05;4.15;;;;;;;;;;4205674;34;20190;-70
2021/07/22 06:40:42;;;;;;;8.90;4.57;;;;;;;;;;4205613;34;20240;-65
2021/07/22 06:43:12;;;;;;;7.28;4.80;;;;;;;;;;4205611;34;20559;-65
2021/07/22 06:45:41;;;;;;;9.10;5.12;;;;;;;;;;4192880;34;20106;-65
2021/07/22 06:48:08;;;;;;;3.22;2.85;;;;;;;;;;4205636;34;20113;-64
2021/07/22 06:50:34;;;;;;;5.35;3.85;;;;;;;;;;4205701;34;20387;-66
2021/07/22 06:53:06;;;;;;;4.53;3.47;;;;;;;;;;4192611;34;20090;-63
2021/07/22 06:55:33;;;;;;;8.13;4.60;;;;;;;;;;4205392;34;20131;-68
2021/07/22 06:58:06;;;;;;;11.85;4.15;;;;;;;;;;4192538;34;20201;-69
2021/07/22 07:00:32;;;;;;;5.28;4.35;;;;;;;;;;4192757;34;20094;-70
2021/07/22 07:03:01;;;;;;;11.85;4.55;;;;;;;;;;4192328;34;20138;-66
2021/07/22 07:05:27;;;;;;;8.25;5.18;;;;;;;;;;4205341;34;20141;-69
2021/07/22 07:07:56;;;;;;;8.07;4.60;;;;;;;;;;4205322;34;20124;-64
2021/07/22 07:10:23;;;;;;;7.10;4.78;;;;;;;;;;4205508;34;20222;-65
2021/07/22 07:12:50;;;;;;;5.87;4.18;;;;;;;;;;4205302;34;20263;-66
2021/07/22 07:15:16;;;;;;;9.48;4.32;;;;;;;;;;4205329;34;20136;-67
2021/07/22 07:17:42;;;;;;;7.22;4.55;;;;;;;;;;4192504;34;20559;-65
2021/07/22 07:20:08;;;;;;;6.95;4.75;;;;;;;;;;4205270;34;20153;-71
2021/07/22 07:22:34;;;;;;;6.28;4.70;;;;;;;;;;4205253;34;20622;-70
2021/07/22 07:25:00;;;;;;;6.03;4.70;;;;;;;;;;4205213;34;20105;-70
2021/07/22 07:27:26;;;;;;;6.95;3.47;;;;;;;;;;4192304;34;20116;-70
2021/07/22 07:29:52;;;;;;;5.10;4.00;;;;;;;;;;4205244;34;20117;-71
2021/07/22 07:32:17;;;;;;;7.70;3.80;;;;;;;;;;4205088;34;20221;-70
2021/07/22 07:34:43;;;;;;;9.80;4.10;;;;;;;;;;4204965;34;20169;-70
2021/07/22 07:37:09;;;;;;;5.75;4.43;;;;;;;;;;4205212;34;20118;-71
2021/07/22 07:39:35;;;;;;;7.50;3.25;;;;;;;;;;4205038;34;20137;-70
2021/07/22 07:42:01;;;;;;;5.15;3.87;;;;;;;;;;4204932;34;20261;-68
2021/07/22 07:44:28;;;;;;;6.72;4.62;;;;;;;;;;4192458;34;20552;-70
2021/07/22 07:46:53;;;;;;;4.30;2.90;;;;;;;;;;4204931;34;20140;-65
2021/07/22 07:49:19;;;;;;;4.37;3.35;;;;;;;;;;4192240;34;20430;-70
2021/07/22 07:51:45;;;;;;;8.32;4.62;;;;;;;;;;4204986;34;20460;-64
2021/07/22 07:54:11;;;;;;;6.03;3.92;;;;;;;;;;4192206;34;20129;-67
2021/07/22 07:56:38;;;;;;;11.85;4.65;;;;;;;;;;4205049;34;20114;-67
2021/07/22 07:59:04;;;;;;;8.02;3.65;;;;;;;;;;4204702;34;20525;-65
2021/07/22 08:01:30;;;;;;;6.28;4.32;;;;;;;;;;4205216;34;20101;-66
2021/07/22 08:03:57;;;;;;;4.85;3.05;;;;;;;;;;4204962;34;20129;-70
2021/07/22 08:06:23;;;;;;;8.00;3.10;;;;;;;;;;4205005;34;20149;-66
2021/07/22 08:08:49;;;;;;;5.28;3.87;;;;;;;;;;4192121;34;20098;-66
2021/07/22 08:11:15;;;;;;;4.18;2.75;;;;;;;;;;4180590;34;20605;-66
2021/07/22 08:13:41;;;;;;;4.65;3.90;;;;;;;;;;4205072;34;20146;-65
2021/07/22 08:16:07;;;;;;;4.15;3.28;;;;;;;;;;4204721;34;20115;-66
2021/07/22 08:18:34;;;;;;;6.10;2.97;;;;;;;;;;4205040;34;20116;-65
2021/07/22 08:21:00;;;;;;;4.87;2.67;;;;;;;;;;4204724;34;20133;-70
2021/07/22 08:23:26;;;;;;;4.87;3.72;;;;;;;;;;4204733;34;20114;-69
2021/07/22 08:25:52;;;;;;;4.75;3.42;;;;;;;;;;4204746;34;20221;-69
2021/07/22 08:28:18;;;;;;;5.75;3.90;;;;;;;;;;4204888;34;20132;-68
2021/07/22 08:30:44;;;;;;;3.08;2.70;;;;;;;;;;4204583;34;20126;-69
2021/07/22 08:33:10;;;;;;;4.10;3.53;;;;;;;;;;4204644;34;20125;-69
2021/07/22 08:35:36;;;;;;;3.42;2.58;;;;;;;;;;4204612;34;20469;-70
2021/07/22 08:38:02;;;;;;;5.10;3.62;;;;;;;;;;4204641;34;20549;-70
2021/07/22 08:40:27;;;;;;;4.28;3.05;;;;;;;;;;4204744;34;20129;-65
2021/07/22 08:42:54;;;;;;;3.67;3.05;;;;;;;;;;4204622;34;20125;-65
2021/07/22 08:45:20;;;;;;;4.40;2.72;;;;;;;;;;4191702;34;20108;-65
2021/07/22 08:47:46;;;;;;;4.22;3.17;;;;;;;;;;4204404;34;20204;-65
2021/07/22 08:50:13;;;;;;;5.10;2.62;;;;;;;;;;4191671;34;20183;-69
2021/07/22 08:52:41;;;;;;;8.25;2.83;;;;;;;;;;4204445;34;20101;-66
2021/07/22 08:55:07;;;;;;;3.12;2.35;;;;;;;;;;4191779;34;20085;-68
2021/07/22 08:57:33;;;;;;;3.72;2.72;;;;;;;;;;4204357;34;20204;-68
2021/07/22 09:00:00;;;;;;;4.20;2.28;;;;;;;;;;4191354;34;20612;-68
2021/07/22 09:02:30;;;;;;;6.40;2.95;;;;;;;;;;4204456;34;20113;-68
2021/07/22 09:04:57;;;;;;;3.75;2.40;;;;;;;;;;4204450;34;20205;-69
2021/07/22 09:07:24;;;;;;;3.42;2.12;;;;;;;;;;4204597;34;20184;-68
2021/07/22 09:10:05;;;;;;;3.12;2.08;;;;;;;;;;4205614;34;20170;-68
2021/07/22 09:12:44;;;;;;;5.55;2.90;;;;;;;;;;4206383;34;20122;-68
2021/07/22 09:15:32;;;;;;;5.40;3.10;;;;;;;;;;4206175;34;20438;-66
2021/07/22 09:17:58;;;;;;;3.70;3.00;;;;;;;;;;4206460;34;20141;-68
2021/07/22 09:20:32;;;;;;;3.80;3.00;;;;;;;;;;4193406;34;20137;-68
2021/07/22 09:22:59;;;;;;;3.25;2.50;;;;;;;;;;4206301;34;20812;-66
2021/07/22 09:25:42;;;;;;;3.20;2.40;;;;;;;;;;4193436;34;20121;-66
2021/07/22 09:28:09;;;;;;;3.83;3.00;;;;;;;;;;4206388;34;20606;-65
2021/07/22 09:30:35;;;;;;;5.05;3.25;;;;;;;;;;4193395;34;20093;-65
2021/07/22 09:33:03;;;;;;;4.20;3.20;;;;;;;;;;4192977;34;20118;-65
2021/07/22 09:35:29;;;;;;;4.43;3.12;;;;;;;;;;4206086;34;20127;-65
2021/07/22 09:37:56;;;;;;;3.60;3.22;;;;;;;;;;4193050;34;20521;-65
2021/07/22 09:40:24;;;;;;;4.55;2.97;;;;;;;;;;4206365;34;20166;-69
2021/07/22 09:42:54;;;;;;;6.82;3.58;;;;;;;;;;4206110;34;20525;-65
2021/07/22 09:45:24;;;;;;;3.25;2.30;;;;;;;;;;4206007;34;20094;-65
2021/07/22 09:47:51;;;;;;;5.68;3.67;;;;;;;;;;4206013;34;20101;-65
2021/07/22 09:50:24;;;;;;;3.45;3.00;;;;;;;;;;4193243;34;20105;-64
2021/07/22 09:53:07;;;;;;;3.25;2.85;;;;;;;;;;4205900;34;20105;-65
2021/07/22 09:55:33;;;;;;;3.58;2.55;;;;;;;;;;4206188;34;20181;-69
2021/07/22 09:58:00;;;;;;;4.70;3.17;;;;;;;;;;4206019;34;20528;-69
2021/07/22 10:00:28;;;;;;;5.30;2.85;;;;;;;;;;4206197;34;20204;-68
2021/07/22 10:02:55;;;;;;;5.60;3.05;;;;;;;;;;4205718;34;20098;-68
2021/07/22 10:05:26;;;;;;;5.70;3.15;;;;;;;;;;4206013;34;20113;-67
2021/07/22 10:07:52;;;;;;;3.30;2.62;;;;;;;;;;4193246;34;20137;-68
2021/07/22 10:10:20;;;;;;;4.18;2.65;;;;;;;;;;4206198;34;20113;-68
2021/07/22 10:12:51;;;;;;;4.12;2.53;;;;;;;;;;4206111;34;20108;-65
2021/07/22 10:15:17;;;;;;;3.83;3.00;;;;;;;;;;4193308;34;20538;-67
2021/07/22 10:17:43;;;;;;;3.80;2.90;;;;;;;;;;4193237;34;20110;-68
2021/07/22 10:20:10;;;;;;;3.92;2.67;;;;;;;;;;4205894;34;20117;-67
2021/07/22 10:22:36;;;;;;;3.83;2.55;;;;;;;;;;4192501;34;20122;-68
2021/07/22 10:25:02;;;;;;;4.55;2.20;;;;;;;;;;4193099;34;20573;-67
2021/07/22 10:27:28;;;;;;;3.17;2.60;;;;;;;;;;4193102;34;20193;-68
2021/07/22 10:29:54;;;;;;;4.62;2.40;;;;;;;;;;4192925;34;20477;-65
2021/07/22 10:32:24;;;;;;;3.17;2.80;;;;;;;;;;4205819;34;20219;-67
2021/07/22 10:34:51;;;;;;;4.15;2.60;;;;;;;;;;4192967;34;20121;-68
2021/07/22 10:37:18;;;;;;;2.17;1.98;;;;;;;;;;4192982;34;20102;-68
2021/07/22 10:40:07;;;;;;;2.67;2.42;;;;;;;;;;4205813;34;20109;-68
2021/07/22 10:42:46;;;;;;;2.60;2.22;;;;;;;;;;4193559;34;20544;-64
2021/07/22 10:45:33;;;;;;;2.65;2.42;;;;;;;;;;4205642;34;20206;-68
2021/07/22 10:47:58;;;;;;;2.72;2.30;;;;;;;;;;4205961;34;20117;-67
2021/07/22 10:50:47;;;;;;;1.70;1.60;;;;;;;;;;4205666;34;20560;-68
2021/07/22 10:53:13;;;;;;;4.43;2.10;;;;;;;;;;4200869;34;20535;-68
2021/07/22 10:55:43;;;;;;;3.60;2.22;;;;;;;;;;4192759;34;20113;-64
2021/07/22 10:58:23;;;;;;;2.42;2.03;;;;;;;;;;4206152;34;20186;-65
2021/07/22 11:00:50;;;;;;;1.95;1.77;;;;;;;;;;4206348;34;20114;-68
2021/07/22 11:03:38;;;;;;;2.78;2.25;;;;;;;;;;4194214;34;20145;-68
2021/07/22 11:06:10;;;;;;;2.10;1.90;;;;;;;;;;4205808;34;20528;-64
2021/07/22 11:08:37;;;;;;;2.37;2.10;;;;;;;;;;4205939;34;20121;-64
2021/07/22 11:11:06;;;;;;;3.30;2.25;;;;;;;;;;4192965;34;20141;-68
2021/07/22 11:13:37;;;;;;;3.22;2.17;;;;;;;;;;4205564;34;20131;-65
2021/07/22 11:16:22;;;;;;;3.12;1.90;;;;;;;;;;4205494;34;20108;-67
2021/07/22 11:18:55;;;;;;;2.33;2.13;;;;;;;;;;4205557;34;20209;-64
2021/07/22 11:21:33;;;;;;;2.92;2.33;;;;;;;;;;4205498;34;20141;-64
2021/07/22 11:24:00;;;;;;;2.58;2.10;;;;;;;;;;4205426;34;20110;-68
2021/07/22 11:26:30;;;;;;;3.78;2.33;;;;;;;;;;4192524;34;20125;-67
2021/07/22 11:28:57;;;;;;;2.92;2.12;;;;;;;;;;4193205;34;20100;-68
2021/07/22 11:31:23;;;;;;;2.83;1.95;;;;;;;;;;4205267;34;20124;-69
2021/07/22 11:33:49;;;;;;;3.60;2.72;;;;;;;;;;4191515;34;20095;-68
2021/07/22 11:36:17;;;;;;;3.10;2.12;;;;;;;;;;4205207;34;20519;-65
2021/07/22 11:38:49;;;;;;;3.22;2.10;;;;;;;;;;4192479;34;20225;-67
2021/07/22 11:41:15;;;;;;;4.03;2.12;;;;;;;;;;4192290;34;20535;-64
2021/07/22 11:43:42;;;;;;;3.42;2.33;;;;;;;;;;4192646;34;20469;-65
2021/07/22 11:46:10;;;;;;;3.40;2.58;;;;;;;;;;4205313;34;20104;-68
2021/07/22 11:48:36;;;;;;;2.20;2.00;;;;;;;;;;4205207;34;20105;-66
2021/07/22 11:51:08;;;;;;;2.83;2.58;;;;;;;;;;4192411;34;20253;-65
2021/07/22 11:53:34;;;;;;;2.60;2.05;;;;;;;;;;4192132;34;20181;-66
2021/07/22 11:56:11;;;;;;;2.92;2.62;;;;;;;;;;4205318;34;20128;-68
2021/07/22 11:58:37;;;;;;;1.80;1.65;;;;;;;;;;4192413;34;20140;-69
2021/07/22 12:01:05;;;;;;;2.97;2.22;;;;;;;;;;4205290;34;20125;-68
2021/07/22 12:03:31;;;;;;;7.53;2.47;;;;;;;;;;4192324;34;20117;-68
2021/07/22 12:05:57;;;;;;;2.95;2.45;;;;;;;;;;4181100;34;20122;-68
2021/07/22 12:08:23;;;;;;;3.22;2.42;;;;;;;;;;4192157;34;20112;-65
2021/07/22 12:10:49;;;;;;;4.12;2.37;;;;;;;;;;4204962;34;20556;-68
2021/07/22 12:13:16;;;;;;;2.92;2.28;;;;;;;;;;4192465;34;20102;-68
2021/07/22 12:15:44;;;;;;;3.47;2.62;;;;;;;;;;4204809;34;20117;-66
2021/07/22 12:18:10;;;;;;;3.10;2.12;;;;;;;;;;4192245;34;20101;-68
2021/07/22 12:20:36;;;;;;;2.08;1.90;;;;;;;;;;4192136;34;20509;-65
2021/07/22 12:23:27;;;;;;;4.25;2.42;;;;;;;;;;4204694;34;20102;-69
2021/07/22 12:26:05;;;;;;;3.20;2.80;;;;;;;;;;4204909;34;20144;-65
2021/07/22 12:28:31;;;;;;;15.10;2.08;;;;;;;;;;4205191;34;20509;-69
2021/07/22 12:31:40;;;;;;;3.40;2.80;;;;;;;;;;4204804;34;20136;-68
2021/07/22 12:34:06;;;;;;;4.53;2.62;;;;;;;;;;4175130;34;20138;-67
2021/07/22 12:36:35;;;;;;;6.20;2.62;;;;;;;;;;4199990;34;20101;-69
2021/07/22 12:39:10;;;;;;;3.50;2.85;;;;;;;;;;4205003;34;20098;-68
2021/07/22 12:41:36;;;;;;;;;;;;;;;;;;4205036;34;20204;-69
2021/07/22 12:44:02;;;;;;;4.28;2.58;;;;;;;;;;4204380;34;20352;-69
2021/07/22 12:46:31;;;;;;;5.30;2.67;;;;;;;;;;4204622;34;20109;-66
2021/07/22 12:48:58;;;;;;;3.45;2.72;;;;;;;;;;4204566;34;20526;-68
2021/07/22 12:51:24;;;;;;;6.35;2.95;;;;;;;;;;4204572;34;20282;-68
2021/07/22 12:53:50;;;;;;;6.72;2.83;;;;;;;;;;4191884;34;20109;-69
2021/07/22 12:56:16;;;;;;;6.03;3.37;;;;;;;;;;4204653;34;20516;-67
2021/07/22 12:58:44;;;;;;;3.65;2.70;;;;;;;;;;4192059;34;20144;-67
2021/07/22 13:01:14;;;;;;;3.05;2.47;;;;;;;;;;4204358;34;20188;-69
2021/07/22 13:03:41;;;;;;;3.03;2.55;;;;;;;;;;4204677;34;20114;-68
2021/07/22 13:06:07;;;;;;;3.67;2.53;;;;;;;;;;4204410;34;20122;-68
2021/07/22 13:08:33;;;;;;;3.25;2.55;;;;;;;;;;4191542;34;20149;-69
2021/07/22 13:11:00;;;;;;;3.42;2.60;;;;;;;;;;4191649;34;20204;-67
2021/07/22 13:13:26;;;;;;;4.57;2.85;;;;;;;;;;4204180;34;20129;-70
2021/07/22 13:15:52;;;;;;;3.67;2.70;;;;;;;;;;4204163;34;20137;-69
2021/07/22 13:18:18;;;;;;;2.67;2.47;;;;;;;;;;4204161;34;20122;-68
2021/07/22 13:20:44;;;;;;;4.37;2.55;;;;;;;;;;4204588;34;20236;-68
2021/07/22 13:23:10;;;;;;;2.40;2.20;;;;;;;;;;4191240;34;20188;-69
2021/07/22 13:25:36;;;;;;;3.20;2.40;;;;;;;;;;4204181;34;20117;-68
2021/07/22 13:28:02;;;;;;;3.20;2.28;;;;;;;;;;4191065;34;20201;-69
2021/07/22 13:30:28;;;;;;;3.37;2.42;;;;;;;;;;4191305;34;20117;-69
2021/07/22 13:32:56;;;;;;;2.50;2.20;;;;;;;;;;4203769;34;20497;-69
2021/07/22 13:35:27;;;;;;;2.40;2.20;;;;;;;;;;4191224;34;20125;-69
2021/07/22 13:37:53;;;;;;;3.40;2.37;;;;;;;;;;4203988;34;20085;-70
2021/07/22 13:40:21;;;;;;;3.15;2.50;;;;;;;;;;4203959;34;20116;-64
2021/07/22 13:42:47;;;;;;;3.37;3.00;;;;;;;;;;4179879;34;20547;-67
2021/07/22 13:45:13;;;;;;;2.78;2.20;;;;;;;;;;4203872;34;20137;-65
2021/07/22 13:47:39;;;;;;;4.57;2.70;;;;;;;;;;4203683;34;20102;-68
2021/07/22 13:50:05;;;;;;;4.78;2.50;;;;;;;;;;4203934;34;20232;-64
2021/07/22 13:52:31;;;;;;;4.28;2.80;;;;;;;;;;4203726;34;20217;-65
2021/07/22 13:54:57;;;;;;;3.10;2.40;;;;;;;;;;4203715;34;20125;-67
2021/07/22 13:57:23;;;;;;;2.80;2.50;;;;;;;;;;4205190;34;20104;-68
2021/07/22 13:59:49;;;;;;;5.03;2.70;;;;;;;;;;4193078;34;20141;-68
2021/07/22 14:02:15;;;;;;;3.30;2.60;;;;;;;;;;4205937;34;20144;-66
2021/07/22 14:04:41;;;;;;;5.10;2.70;;;;;;;;;;4192516;34;20125;-67
2021/07/22 14:07:07;;;;;;;3.60;2.70;;;;;;;;;;4205833;34;20201;-66
2021/07/22 14:09:33;;;;;;;3.17;2.53;;;;;;;;;;4205741;34;20153;-68
2021/07/22 14:11:59;;;;;;;5.85;2.47;;;;;;;;;;4205899;34;20101;-68
2021/07/22 14:14:25;;;;;;;3.28;2.50;;;;;;;;;;4206247;34;20130;-68
2021/07/22 14:16:51;;;;;;;2.90;2.30;;;;;;;;;;4205538;34;20314;-64
2021/07/22 14:19:36;;;;;;;5.20;2.78;;;;;;;;;;4207197;34;20120;-68
2021/07/22 14:22:04;;;;;;;3.08;2.60;;;;;;;;;;4205910;34;21034;-68
2021/07/22 14:24:30;;;;;;;2.80;2.50;;;;;;;;;;4205673;34;20106;-66
2021/07/22 14:26:56;;;;;;;2.05;1.90;;;;;;;;;;4204104;34;20456;-68
2021/07/22 14:29:23;;;;;;;3.03;2.50;;;;;;;;;;4192013;34;20195;-68
2021/07/22 14:31:49;;;;;;;5.72;2.67;;;;;;;;;;4205963;34;20118;-64
2021/07/22 14:34:16;;;;;;;3.08;2.10;;;;;;;;;;4205399;34;20232;-68
2021/07/22 14:36:42;;;;;;;3.20;2.58;;;;;;;;;;4205428;34;20101;-65